createdAt,value
2023-05-05T00:00:30.707Z,75.84
2023-05-05T00:03:23.871Z,76.46
2023-05-05T00:05:59.020Z,76.60
2023-05-05T00:08:35.221Z,76.69
2023-05-05T00:11:08.562Z,76.49
2023-05-05T00:13:37.551Z,76.29
2023-05-05T00:16:23.499Z,76.44
2023-05-05T00:18:50.296Z,76.35
2023-05-05T00:21:17.014Z,76.36
2023-05-05T00:23:43.586Z,76.56
2023-05-05T00:26:10.327Z,76.51
2023-05-05T00:28:37.776Z,76.44
2023-05-05T00:31:04.690Z,76.36
2023-05-05T00:33:31.431Z,76.39
2023-05-05T00:35:58.137Z,76.49
2023-05-05T00:38:24.731Z,76.69
2023-05-05T00:40:54.225Z,76.86
2023-05-05T00:43:23.233Z,77.04
2023-05-05T00:45:59.627Z,77.31
2023-05-05T00:48:27.873Z,77.42
2023-05-05T00:50:54.604Z,77.55
2023-05-05T00:53:21.655Z,77.58
2023-05-05T00:55:49.153Z,77.73
2023-05-05T00:58:16.984Z,77.63
2023-05-05T01:00:43.938Z,77.45
2023-05-05T01:03:14.564Z,76.99
2023-05-05T01:06:07.354Z,77.06
2023-05-05T01:09:17.071Z,77.26
2023-05-05T01:11:56.055Z,77.10
2023-05-05T01:14:36.326Z,76.81
2023-05-05T01:17:33.240Z,76.76
2023-05-05T01:20:14.972Z,76.65
2023-05-05T01:23:05.373Z,76.28
2023-05-05T01:25:50.152Z,76.45
2023-05-05T01:29:00.128Z,76.42
2023-05-05T01:32:05.956Z,76.31
2023-05-05T01:34:44.380Z,76.27
2023-05-05T01:37:21.780Z,76.24
2023-05-05T01:40:11.333Z,76.29
2023-05-05T01:42:41.966Z,76.39
2023-05-05T01:45:14.059Z,76.53
2023-05-05T01:47:42.119Z,76.36
2023-05-05T01:50:10.871Z,76.29
2023-05-05T01:52:39.432Z,76.02
2023-05-05T01:55:08.249Z,75.92
2023-05-05T01:57:38.489Z,76.11
2023-05-05T02:00:07.354Z,76.49
2023-05-05T02:02:44.720Z,76.56
2023-05-05T02:05:13.125Z,76.49
2023-05-05T02:07:40.155Z,76.65
2023-05-05T02:10:08.986Z,76.67
2023-05-05T02:12:36.975Z,76.97
2023-05-05T02:15:05.340Z,77.05
2023-05-05T02:17:32.747Z,77.05
2023-05-05T02:20:02.314Z,76.86
2023-05-05T02:22:28.939Z,76.94
2023-05-05T02:24:55.604Z,76.98
2023-05-05T02:27:24.044Z,76.91
2023-05-05T02:29:55.995Z,77.03
2023-05-05T02:33:15.660Z,77.01
2023-05-05T02:35:52.356Z,77.24
2023-05-05T02:38:27.184Z,77.31
2023-05-05T02:40:57.624Z,77.51
2023-05-05T02:43:26.777Z,77.63
2023-05-05T02:45:53.556Z,77.90
2023-05-05T02:48:20.606Z,77.98
2023-05-05T02:50:48.889Z,77.63
2023-05-05T02:53:36.196Z,77.59
2023-05-05T02:56:32.636Z,77.48
2023-05-05T02:59:09.405Z,77.54
2023-05-05T03:01:56.096Z,77.60
2023-05-05T03:04:28.690Z,77.29
2023-05-05T03:07:06.145Z,77.59
2023-05-05T03:09:39.252Z,77.81
2023-05-05T03:12:11.936Z,77.75
2023-05-05T03:14:51.316Z,77.94
2023-05-05T03:17:19.776Z,78.22
2023-05-05T03:19:48.982Z,78.35
2023-05-05T03:22:18.074Z,78.35
2023-05-05T03:24:51.134Z,78.26
2023-05-05T03:27:21.530Z,78.31
2023-05-05T03:29:51.309Z,78.34
2023-05-05T03:32:23.055Z,78.17
2023-05-05T03:34:50.284Z,78.13
2023-05-05T03:37:17.261Z,78.81
2023-05-05T03:39:44.017Z,78.91
2023-05-05T03:42:11.250Z,78.99
2023-05-05T03:44:40.732Z,79.43
2023-05-05T03:47:11.067Z,79.67
2023-05-05T03:49:38.442Z,79.94
2023-05-05T03:52:05.692Z,80.17
2023-05-05T03:54:32.550Z,80.86
2023-05-05T03:56:59.289Z,81.27
2023-05-05T03:59:26.276Z,81.47
2023-05-05T04:01:53.196Z,81.87
2023-05-05T04:04:20.900Z,82.12
2023-05-05T04:06:47.756Z,82.30
2023-05-05T04:09:17.771Z,82.34
2023-05-05T04:11:44.877Z,82.53
2023-05-05T04:14:11.897Z,82.31
2023-05-05T04:16:38.774Z,82.29
2023-05-05T04:19:05.612Z,82.30
2023-05-05T04:21:35.280Z,82.41
2023-05-05T04:24:02.888Z,82.35
2023-05-05T04:26:31.116Z,82.25
2023-05-05T04:29:01.150Z,82.27
2023-05-05T04:31:28.182Z,82.19
2023-05-05T04:33:54.884Z,82.19
2023-05-05T04:36:21.776Z,82.06
2023-05-05T04:38:49.402Z,81.61
2023-05-05T04:41:16.134Z,81.32
2023-05-05T04:43:43.131Z,81.23
2023-05-05T04:46:10.023Z,81.02
2023-05-05T04:48:37.918Z,80.76
2023-05-05T04:51:07.701Z,80.24
2023-05-05T04:53:37.876Z,79.93
2023-05-05T04:56:04.770Z,79.61
2023-05-05T04:58:32.087Z,79.41
2023-05-05T05:00:58.864Z,79.29
2023-05-05T05:03:29.048Z,79.66
2023-05-05T05:05:56.010Z,79.51
2023-05-05T05:08:23.433Z,78.72
2023-05-05T05:10:50.786Z,78.12
2023-05-05T05:13:37.791Z,77.59
2023-05-05T05:16:05.981Z,77.08
2023-05-05T05:18:33.171Z,76.63
2023-05-05T05:21:00.261Z,75.70
2023-05-05T05:23:27.324Z,75.18
2023-05-05T05:25:54.274Z,74.48
2023-05-05T05:28:21.432Z,74.06
2023-05-05T05:30:52.106Z,73.42
2023-05-05T05:33:21.597Z,72.90
2023-05-05T05:35:49.101Z,72.41
2023-05-05T05:38:17.386Z,72.09
2023-05-05T05:40:44.130Z,71.67
2023-05-05T05:43:10.789Z,71.80
2023-05-05T05:45:38.337Z,70.97
2023-05-05T05:48:05.709Z,70.19
2023-05-05T05:50:32.517Z,69.82
2023-05-05T05:52:59.582Z,69.90
2023-05-05T05:55:26.610Z,70.00
2023-05-05T05:57:53.493Z,69.80
2023-05-05T06:00:20.541Z,68.99
2023-05-05T06:02:51.122Z,68.35
2023-05-05T06:05:20.239Z,67.65
2023-05-05T06:07:47.660Z,66.70
2023-05-05T06:10:27.201Z,66.74
2023-05-05T06:12:59.930Z,67.01
2023-05-05T06:15:26.782Z,66.23
2023-05-05T06:17:54.089Z,65.12
2023-05-05T06:20:21.876Z,64.16
2023-05-05T06:22:48.877Z,63.78
2023-05-05T06:25:16.068Z,63.48
2023-05-05T06:27:42.703Z,63.17
2023-05-05T06:30:10.245Z,62.63
2023-05-05T06:32:37.219Z,61.72
2023-05-05T06:35:04.260Z,61.32
2023-05-05T06:37:31.005Z,61.08
2023-05-05T06:39:57.741Z,60.73
2023-05-05T06:42:24.434Z,58.82
2023-05-05T06:44:52.110Z,59.15
2023-05-05T06:47:19.339Z,59.47
2023-05-05T06:49:46.015Z,58.84
2023-05-05T06:52:12.794Z,59.03
2023-05-05T06:54:39.426Z,58.57
2023-05-05T06:57:06.421Z,58.03
2023-05-05T06:59:33.025Z,57.16
2023-05-05T07:01:59.855Z,56.88
2023-05-05T07:04:26.662Z,56.32
2023-05-05T07:06:54.531Z,56.02
2023-05-05T07:09:21.150Z,55.73
2023-05-05T07:11:47.709Z,55.25
2023-05-05T07:14:15.713Z,54.57
2023-05-05T07:16:42.378Z,54.17
2023-05-05T07:19:09.193Z,53.93
2023-05-05T07:21:35.983Z,53.31
2023-05-05T07:24:03.050Z,53.04
2023-05-05T07:26:29.819Z,52.83
2023-05-05T07:28:58.015Z,52.21
2023-05-05T07:31:25.739Z,52.25
2023-05-05T07:33:52.389Z,51.85
2023-05-05T07:36:19.796Z,51.13
2023-05-05T07:38:46.487Z,51.04
2023-05-05T07:41:13.230Z,49.78
2023-05-05T07:43:41.678Z,50.26
2023-05-05T07:46:09.813Z,49.68
2023-05-05T07:48:36.824Z,48.80
2023-05-05T07:51:03.484Z,48.88
2023-05-05T07:53:30.464Z,48.09
2023-05-05T07:55:57.047Z,47.94
2023-05-05T07:58:23.741Z,47.55
2023-05-05T08:00:50.702Z,46.76
2023-05-05T08:03:20.011Z,46.72
2023-05-05T08:05:46.799Z,45.74
2023-05-05T08:08:13.374Z,45.04
2023-05-05T08:10:39.952Z,44.28
2023-05-05T08:13:06.861Z,43.76
2023-05-05T08:15:33.629Z,43.96
2023-05-05T08:18:00.494Z,43.52
2023-05-05T08:20:28.796Z,43.84
2023-05-05T08:22:55.823Z,43.48
2023-05-05T08:25:22.857Z,42.49
2023-05-05T08:27:50.239Z,43.11
2023-05-05T08:30:20.233Z,43.19
2023-05-05T08:32:46.966Z,43.26
2023-05-05T08:35:13.835Z,43.34
2023-05-05T08:37:40.757Z,42.11
2023-05-05T08:40:10.909Z,41.87
2023-05-05T08:42:39.147Z,42.06
2023-05-05T08:45:08.683Z,41.85
2023-05-05T08:47:36.974Z,42.13
2023-05-05T08:50:07.478Z,43.08
2023-05-05T08:52:49.840Z,42.77
2023-05-05T08:55:26.023Z,42.81
2023-05-05T08:57:56.248Z,41.53
2023-05-05T09:00:25.872Z,41.41
2023-05-05T09:02:55.644Z,40.53
2023-05-05T09:05:23.468Z,39.61
2023-05-05T09:07:50.647Z,39.05
2023-05-05T09:10:20.302Z,39.61
2023-05-05T09:12:49.140Z,39.97
2023-05-05T09:15:18.496Z,39.15
2023-05-05T09:17:46.503Z,38.83
2023-05-05T09:20:14.408Z,38.93
2023-05-05T09:22:43.705Z,38.50
2023-05-05T09:25:15.698Z,38.28
2023-05-05T09:27:45.238Z,37.90
2023-05-05T09:30:16.002Z,37.98
2023-05-05T09:32:48.188Z,37.39
2023-05-05T09:35:16.129Z,37.04
2023-05-05T09:37:46.144Z,37.51
2023-05-05T09:40:14.575Z,38.70
2023-05-05T09:42:41.186Z,39.01
2023-05-05T09:45:16.765Z,38.68
2023-05-05T09:47:47.595Z,37.91
2023-05-05T09:50:18.031Z,39.03
2023-05-05T09:52:59.345Z,38.94
2023-05-05T09:55:26.518Z,39.17
2023-05-05T09:57:53.524Z,38.97
2023-05-05T10:00:21.301Z,38.78
2023-05-05T10:02:48.141Z,38.16
2023-05-05T10:05:16.838Z,37.40
2023-05-05T10:07:46.945Z,37.16
2023-05-05T10:10:16.493Z,37.53
2023-05-05T10:12:46.051Z,36.73
2023-05-05T10:15:15.121Z,36.08
2023-05-05T10:20:20.064Z,36.64
2023-05-05T10:22:52.214Z,36.40
2023-05-05T10:25:30.532Z,35.87
2023-05-05T10:28:02.248Z,35.91
2023-05-05T10:30:33.158Z,36.31
2023-05-05T10:33:31.751Z,35.92
2023-05-05T10:36:05.396Z,35.98
2023-05-05T10:38:35.566Z,35.88
2023-05-05T10:41:03.180Z,35.95
2023-05-05T10:43:31.443Z,35.74
2023-05-05T10:45:58.828Z,35.95
2023-05-05T10:48:35.455Z,36.09
2023-05-05T10:51:40.436Z,35.74
2023-05-05T10:54:19.276Z,35.42
2023-05-05T10:56:46.553Z,34.84
2023-05-05T10:59:40.384Z,33.77
2023-05-05T11:02:27.472Z,33.78
2023-05-05T11:05:17.155Z,34.77
2023-05-05T11:07:45.606Z,34.55
2023-05-05T11:10:14.896Z,34.16
2023-05-05T11:13:01.988Z,34.22
2023-05-05T11:15:28.901Z,34.02
2023-05-05T11:18:05.766Z,33.59
2023-05-05T11:20:36.994Z,34.13
2023-05-05T11:23:03.628Z,33.18
2023-05-05T11:25:40.201Z,32.93
2023-05-05T11:28:10.835Z,32.72
2023-05-05T11:30:56.019Z,33.42
2023-05-05T11:33:33.211Z,33.05
2023-05-05T11:36:02.815Z,32.86
2023-05-05T11:38:47.148Z,32.70
2023-05-05T11:41:26.864Z,32.64
2023-05-05T11:44:15.375Z,32.36
2023-05-05T11:46:51.240Z,32.26
2023-05-05T11:49:27.792Z,32.50
2023-05-05T11:52:07.552Z,32.45
2023-05-05T11:54:36.188Z,32.24
2023-05-05T11:57:05.003Z,32.35
2023-05-05T11:59:32.307Z,32.33
2023-05-05T12:01:59.609Z,32.01
2023-05-05T12:04:26.482Z,32.20
2023-05-05T12:06:54.721Z,31.83
2023-05-05T12:09:22.657Z,32.09
2023-05-05T12:11:51.167Z,32.64
2023-05-05T12:14:18.209Z,33.16
2023-05-05T12:16:57.169Z,33.05
2023-05-05T12:19:24.463Z,32.88
2023-05-05T12:21:53.620Z,33.08
2023-05-05T12:24:20.238Z,33.06
2023-05-05T12:26:47.255Z,32.64
2023-05-05T12:29:23.851Z,32.93
2023-05-05T12:31:51.115Z,33.28
2023-05-05T12:34:18.704Z,33.02
2023-05-05T12:36:46.017Z,32.35
2023-05-05T12:39:12.982Z,32.00
2023-05-05T12:41:39.607Z,33.11
2023-05-05T12:44:06.476Z,33.08
2023-05-05T12:46:46.830Z,32.63
2023-05-05T12:49:14.017Z,32.55
2023-05-05T12:51:55.976Z,32.79
2023-05-05T12:54:24.331Z,32.38
2023-05-05T12:56:51.117Z,32.64
2023-05-05T12:59:21.097Z,32.44
2023-05-05T13:01:55.891Z,32.93
2023-05-05T13:04:27.292Z,32.61
2023-05-05T13:07:12.443Z,32.63
2023-05-05T13:09:39.824Z,32.95
2023-05-05T13:12:08.016Z,32.77
2023-05-05T13:14:35.850Z,33.07
2023-05-05T13:17:05.429Z,33.10
2023-05-05T13:19:41.124Z,33.10
2023-05-05T13:22:12.254Z,32.95
2023-05-05T13:24:50.811Z,32.71
2023-05-05T13:27:19.870Z,32.26
2023-05-05T13:29:47.256Z,32.13
2023-05-05T13:32:14.077Z,32.56
2023-05-05T13:34:41.928Z,32.38
2023-05-05T13:37:08.949Z,32.56
2023-05-05T13:39:36.281Z,32.84
2023-05-05T13:42:03.041Z,33.39
2023-05-05T13:44:29.909Z,33.77
2023-05-05T13:46:57.225Z,33.21
2023-05-05T13:49:24.140Z,33.00
2023-05-05T13:51:50.683Z,33.02
2023-05-05T13:54:17.425Z,33.35
2023-05-05T13:56:44.019Z,33.13
2023-05-05T13:59:10.651Z,33.14
2023-05-05T14:01:37.931Z,33.25
2023-05-05T14:04:05.862Z,33.37
2023-05-05T14:06:33.462Z,33.37
2023-05-05T14:09:00.793Z,33.25
2023-05-05T14:11:27.510Z,33.11
2023-05-05T14:13:54.290Z,33.00
2023-05-05T14:16:21.187Z,33.47
2023-05-05T14:18:48.061Z,33.24
2023-05-05T14:21:14.797Z,33.16
2023-05-05T14:23:41.432Z,33.04
2023-05-05T14:26:08.235Z,33.43
2023-05-05T14:28:34.783Z,33.22
2023-05-05T14:31:01.589Z,33.48
2023-05-05T14:33:28.392Z,33.73
2023-05-05T14:35:55.033Z,33.28
2023-05-05T14:38:22.034Z,33.46
2023-05-05T14:40:48.792Z,33.53
2023-05-05T14:43:15.512Z,33.25
2023-05-05T14:45:43.538Z,33.37
2023-05-05T14:48:10.250Z,33.78
2023-05-05T14:50:37.935Z,34.21
2023-05-05T14:53:04.761Z,33.76
2023-05-05T14:55:32.577Z,34.03
2023-05-05T14:57:59.213Z,33.90
2023-05-05T15:00:26.196Z,34.03
2023-05-05T15:02:56.126Z,33.85
2023-05-05T15:05:22.847Z,34.16
2023-05-05T15:07:49.867Z,33.99
2023-05-05T15:10:18.173Z,34.07
2023-05-05T15:12:45.762Z,34.66
2023-05-05T15:15:14.130Z,35.01
2023-05-05T15:17:41.335Z,35.20
2023-05-05T15:20:08.714Z,35.44
2023-05-05T15:22:35.764Z,35.69
2023-05-05T15:25:02.869Z,36.34
2023-05-05T15:27:31.005Z,36.33
2023-05-05T15:29:57.939Z,35.77
2023-05-05T15:32:24.752Z,35.85
2023-05-05T15:34:51.563Z,35.86
2023-05-05T15:37:18.255Z,36.36
2023-05-05T15:39:47.739Z,36.08
2023-05-05T15:42:14.370Z,35.45
2023-05-05T15:44:40.904Z,34.92
2023-05-05T15:47:08.479Z,34.89
2023-05-05T15:49:38.171Z,35.20
2023-05-05T15:52:04.796Z,35.22
2023-05-05T15:54:31.372Z,35.61
2023-05-05T15:56:58.015Z,35.74
2023-05-05T15:59:25.352Z,36.09
2023-05-05T16:01:52.319Z,36.33
2023-05-05T16:04:18.862Z,36.55
2023-05-05T16:06:45.517Z,36.80
2023-05-05T16:09:12.538Z,37.95
2023-05-05T16:11:39.280Z,37.37
2023-05-05T16:14:06.020Z,37.16
2023-05-05T16:16:32.894Z,38.36
2023-05-05T16:18:59.581Z,39.12
2023-05-05T16:21:26.958Z,39.52
2023-05-05T16:23:53.899Z,40.08
2023-05-05T16:26:20.794Z,40.67
2023-05-05T16:28:48.058Z,41.42
2023-05-05T16:31:14.806Z,41.65
2023-05-05T16:33:43.137Z,42.55
2023-05-05T16:36:11.699Z,43.27
2023-05-05T16:38:39.437Z,44.01
2023-05-05T16:41:06.524Z,44.41
2023-05-05T16:43:36.327Z,44.61
2023-05-05T16:46:03.537Z,44.22
2023-05-05T16:48:33.086Z,44.38
2023-05-05T16:50:59.854Z,44.15
2023-05-05T16:53:26.618Z,45.07
2023-05-05T16:55:54.043Z,46.07
2023-05-05T16:58:24.621Z,45.55
2023-05-05T17:00:51.936Z,45.56
2023-05-05T17:03:19.786Z,46.19
2023-05-05T17:05:49.146Z,46.82
2023-05-05T17:08:16.830Z,46.69
2023-05-05T17:10:44.923Z,46.90
2023-05-05T17:13:13.362Z,46.95
2023-05-05T17:15:40.289Z,47.10
2023-05-05T17:18:08.030Z,47.07
2023-05-05T17:20:35.824Z,47.51
2023-05-05T17:23:02.816Z,48.66
2023-05-05T17:25:29.563Z,49.72
2023-05-05T17:27:56.932Z,49.52
2023-05-05T17:30:32.648Z,50.27
2023-05-05T17:32:59.433Z,50.89
2023-05-05T17:35:26.254Z,50.90
2023-05-05T17:37:53.150Z,51.93
2023-05-05T17:40:20.098Z,52.46
2023-05-05T17:42:46.983Z,52.92
2023-05-05T17:45:13.736Z,53.02
2023-05-05T17:47:40.383Z,53.70
2023-05-05T17:50:09.697Z,53.44
2023-05-05T17:52:36.814Z,53.64
2023-05-05T17:55:03.840Z,54.26
2023-05-05T17:57:30.814Z,54.02
2023-05-05T17:59:57.607Z,54.86
2023-05-05T18:02:24.600Z,54.91
2023-05-05T18:04:51.472Z,54.99
2023-05-05T18:07:18.171Z,55.06
2023-05-05T18:09:44.784Z,55.54
2023-05-05T18:12:11.497Z,57.07
2023-05-05T18:14:38.173Z,57.33
2023-05-05T18:17:04.939Z,56.90
2023-05-05T18:19:31.807Z,57.40
2023-05-05T18:21:58.496Z,58.25
2023-05-05T18:24:25.620Z,57.77
2023-05-05T18:26:52.869Z,58.42
2023-05-05T18:29:21.220Z,58.43
2023-05-05T18:31:51.002Z,58.56
2023-05-05T18:34:18.808Z,58.36
2023-05-05T18:36:46.761Z,58.35
2023-05-05T18:39:13.904Z,58.90
2023-05-05T18:41:40.582Z,59.44
2023-05-05T18:44:07.386Z,60.02
2023-05-05T18:46:34.277Z,60.48
2023-05-05T18:49:01.304Z,60.68
2023-05-05T18:51:28.235Z,61.02
2023-05-05T18:53:55.004Z,60.80
2023-05-05T18:56:21.717Z,61.22
2023-05-05T18:58:48.859Z,61.40
2023-05-05T19:01:15.654Z,61.12
2023-05-05T19:03:45.849Z,60.97
2023-05-05T19:06:13.064Z,61.04
2023-05-05T19:08:39.910Z,61.02
2023-05-05T19:11:08.862Z,61.85
2023-05-05T19:16:10.513Z,61.51
2023-05-05T19:18:37.287Z,62.45
2023-05-05T19:21:06.763Z,62.32
2023-05-05T19:23:35.470Z,62.66
2023-05-05T19:26:05.347Z,62.77
2023-05-05T19:28:32.775Z,62.68
2023-05-05T19:30:59.563Z,63.18
2023-05-05T19:33:26.398Z,63.52
2023-05-05T19:35:53.100Z,63.11
2023-05-05T19:38:19.686Z,62.95
2023-05-05T19:40:46.599Z,62.78
2023-05-05T19:43:15.689Z,63.83
2023-05-05T19:45:42.440Z,63.56
2023-05-05T19:48:09.235Z,63.38
2023-05-05T19:50:36.224Z,64.25
2023-05-05T19:53:04.202Z,63.73
2023-05-05T19:55:32.507Z,62.93
2023-05-05T19:57:59.172Z,63.24
2023-05-05T20:00:29.225Z,63.78
2023-05-05T20:02:55.923Z,64.10
2023-05-05T20:05:22.684Z,64.90
2023-05-05T20:07:50.367Z,65.40
2023-05-05T20:10:17.415Z,65.61
2023-05-05T20:12:47.145Z,65.65
2023-05-05T20:15:19.908Z,66.10
2023-05-05T20:17:47.751Z,66.18
2023-05-05T20:20:16.979Z,66.02
2023-05-05T20:22:44.837Z,66.41
2023-05-05T20:25:12.087Z,66.37
2023-05-05T20:27:38.939Z,66.65
2023-05-05T20:30:07.189Z,66.84
2023-05-05T20:32:34.194Z,66.54
2023-05-05T20:35:05.431Z,66.67
2023-05-05T20:37:32.149Z,66.47
2023-05-05T20:39:58.772Z,66.67
2023-05-05T20:42:26.954Z,66.97
2023-05-05T20:44:53.563Z,66.77
2023-05-05T20:47:20.552Z,67.24
2023-05-05T20:49:47.461Z,67.57
2023-05-05T20:52:14.170Z,67.70
2023-05-05T20:54:40.865Z,67.80
2023-05-05T20:57:07.496Z,67.83
2023-05-05T20:59:34.238Z,67.75
2023-05-05T21:02:01.241Z,68.05
2023-05-05T21:04:28.437Z,68.09
2023-05-05T21:06:56.714Z,68.01
2023-05-05T21:09:23.643Z,68.28
2023-05-05T21:11:50.322Z,69.15
2023-05-05T21:14:17.042Z,69.04
2023-05-05T21:16:43.752Z,69.20
2023-05-05T21:19:10.626Z,69.07
2023-05-05T21:21:37.568Z,68.98
2023-05-05T21:24:06.966Z,68.66
2023-05-05T21:26:36.678Z,69.10
2023-05-05T21:29:04.142Z,69.09
2023-05-05T21:31:30.978Z,69.56
2023-05-05T21:33:57.800Z,69.49
2023-05-05T21:36:24.401Z,68.87
2023-05-05T21:38:54.620Z,69.43
2023-05-05T21:41:22.565Z,69.81
2023-05-05T21:43:49.328Z,69.74
2023-05-05T21:46:17.521Z,69.82
2023-05-05T21:48:46.569Z,69.79
2023-05-05T21:51:13.511Z,69.85
2023-05-05T21:53:40.284Z,70.01
2023-05-05T21:56:10.189Z,69.40
2023-05-05T21:58:36.995Z,69.63
2023-05-05T22:01:03.752Z,69.61
2023-05-05T22:03:30.625Z,69.55
2023-05-05T22:05:57.431Z,69.98
2023-05-05T22:08:24.370Z,70.06
2023-05-05T22:10:51.738Z,70.43
2023-05-05T22:13:18.601Z,70.52
2023-05-05T22:15:47.518Z,70.53
2023-05-05T22:18:15.505Z,70.23
2023-05-05T22:20:42.774Z,70.30
2023-05-05T22:23:09.434Z,70.48
2023-05-05T22:25:36.244Z,70.47
2023-05-05T22:28:03.519Z,70.61
2023-05-05T22:30:30.479Z,70.55
2023-05-05T22:32:57.274Z,70.75
2023-05-05T22:35:23.954Z,70.88
2023-05-05T22:37:51.105Z,71.30
2023-05-05T22:40:17.852Z,71.36
2023-05-05T22:42:44.712Z,71.47
2023-05-05T22:45:12.377Z,71.62
2023-05-05T22:47:39.432Z,71.26
2023-05-05T22:50:09.530Z,71.65
2023-05-05T22:52:36.566Z,71.31
2023-05-05T22:55:07.182Z,71.42
2023-05-05T22:57:35.636Z,71.66
2023-05-05T23:00:04.583Z,71.19
2023-05-05T23:02:31.830Z,71.68
2023-05-05T23:04:58.698Z,72.11
2023-05-05T23:07:25.488Z,72.11
2023-05-05T23:09:52.555Z,72.17
2023-05-05T23:12:19.331Z,72.23
2023-05-05T23:14:46.157Z,72.31
2023-05-05T23:17:12.966Z,72.36
2023-05-05T23:19:39.852Z,72.37
2023-05-05T23:22:06.427Z,72.21
2023-05-05T23:24:34.647Z,72.39
2023-05-05T23:27:01.491Z,72.61
2023-05-05T23:29:28.852Z,72.62
2023-05-05T23:31:56.254Z,72.59
2023-05-05T23:34:23.176Z,72.72
2023-05-05T23:36:49.996Z,73.11
2023-05-05T23:39:16.784Z,73.37
2023-05-05T23:41:43.471Z,73.29
2023-05-05T23:44:10.154Z,73.53
2023-05-05T23:46:36.829Z,73.23
2023-05-05T23:49:03.592Z,73.04
2023-05-05T23:51:30.392Z,73.42
2023-05-05T23:53:57.177Z,73.64
2023-05-05T23:56:24.250Z,73.65
2023-05-05T23:58:53.704Z,73.55
